sensor_id;sensor_type;location;lat;lon;timestamp;pressure;altitude;pressure_sealevel;temperature;humidity
498;BME280;39559;48.630;9.162;2023-07-13T00:02:16;97445.31;;;16.75;100.00
498;BME280;39559;48.630;9.162;2023-07-13T00:04:42;97450.34;;;16.53;100.00
498;BME280;39559;48.630;9.162;2023-07-13T00:07:08;97447.41;;;16.44;100.00
498;BME280;39559;48.630;9.162;2023-07-13T00:09:34;97438.91;;;16.41;100.00
498;BME280;39559;48.630;9.162;2023-07-13T00:12:05;97434.41;;;16.30;100.00
498;BME280;39559;48.630;9.162;2023-07-13T00:14:46;97433.78;;;16.39;100.00
498;BME280;39559;48.630;9.162;2023-07-13T00:17:12;97430.75;;;16.58;100.00
498;BME280;39559;48.630;9.162;2023-07-13T00:19:38;97424.56;;;16.46;100.00
498;BME280;39559;48.630;9.162;2023-07-13T00:23:43;97435.44;;;16.40;100.00
498;BME280;39559;48.630;9.162;2023-07-13T00:26:10;97431.34;;;16.36;100.00
498;BME280;39559;48.630;9.162;2023-07-13T00:28:36;97431.78;;;16.30;100.00
498;BME280;39559;48.630;9.162;2023-07-13T00:31:02;97430.19;;;16.27;100.00
498;BME280;39559;48.630;9.162;2023-07-13T00:33:28;97429.22;;;16.16;100.00
498;BME280;39559;48.630;9.162;2023-07-13T00:35:55;97432.84;;;16.00;100.00
498;BME280;39559;48.630;9.162;2023-07-13T00:38:21;97431.91;;;16.01;100.00
498;BME280;39559;48.630;9.162;2023-07-13T00:40:48;97431.81;;;16.03;100.00
498;BME280;39559;48.630;9.162;2023-07-13T00:43:16;97436.06;;;16.31;100.00
498;BME280;39559;48.630;9.162;2023-07-13T00:47:41;97436.56;;;15.83;100.00
498;BME280;39559;48.630;9.162;2023-07-13T00:50:10;97442.06;;;16.06;100.00
498;BME280;39559;48.630;9.162;2023-07-13T00:52:40;97439.28;;;15.82;100.00
498;BME280;39559;48.630;9.162;2023-07-13T00:55:08;97443.06;;;15.78;100.00
498;BME280;39559;48.630;9.162;2023-07-13T00:57:35;97446.88;;;15.72;100.00
498;BME280;39559;48.630;9.162;2023-07-13T01:00:03;97442.59;;;15.57;100.00
498;BME280;39559;48.630;9.162;2023-07-13T01:02:32;97440.34;;;15.79;100.00
498;BME280;39559;48.630;9.162;2023-07-13T01:04:58;97438.00;;;15.74;100.00
498;BME280;39559;48.630;9.162;2023-07-13T01:07:24;97450.44;;;15.57;100.00
498;BME280;39559;48.630;9.162;2023-07-13T01:11:33;97450.66;;;15.53;100.00
498;BME280;39559;48.630;9.162;2023-07-13T01:14:01;97453.97;;;15.43;100.00
498;BME280;39559;48.630;9.162;2023-07-13T01:16:30;97440.81;;;15.57;100.00
498;BME280;39559;48.630;9.162;2023-07-13T01:18:56;97438.50;;;15.94;100.00
498;BME280;39559;48.630;9.162;2023-07-13T01:21:28;97448.44;;;15.89;100.00
498;BME280;39559;48.630;9.162;2023-07-13T01:23:55;97445.38;;;15.68;100.00
498;BME280;39559;48.630;9.162;2023-07-13T01:26:21;97447.66;;;15.60;100.00
498;BME280;39559;48.630;9.162;2023-07-13T01:28:46;97450.03;;;15.50;100.00
498;BME280;39559;48.630;9.162;2023-07-13T01:31:12;97453.75;;;15.31;100.00
498;BME280;39559;48.630;9.162;2023-07-13T01:35:28;97453.16;;;15.13;100.00
498;BME280;39559;48.630;9.162;2023-07-13T01:37:53;97450.34;;;15.02;100.00
498;BME280;39559;48.630;9.162;2023-07-13T01:40:20;97448.19;;;14.94;100.00
498;BME280;39559;48.630;9.162;2023-07-13T01:42:46;97453.59;;;15.20;100.00
498;BME280;39559;48.630;9.162;2023-07-13T01:45:12;97458.66;;;15.09;100.00
498;BME280;39559;48.630;9.162;2023-07-13T01:47:37;97455.75;;;14.85;100.00
498;BME280;39559;48.630;9.162;2023-07-13T01:50:03;97461.56;;;14.90;100.00
498;BME280;39559;48.630;9.162;2023-07-13T01:52:29;97467.81;;;14.87;100.00
498;BME280;39559;48.630;9.162;2023-07-13T01:54:54;97469.28;;;14.77;100.00
498;BME280;39559;48.630;9.162;2023-07-13T01:59:23;97463.03;;;14.65;100.00
498;BME280;39559;48.630;9.162;2023-07-13T02:01:48;97466.75;;;14.61;100.00
498;BME280;39559;48.630;9.162;2023-07-13T02:04:14;97460.72;;;14.45;100.00
498;BME280;39559;48.630;9.162;2023-07-13T02:06:39;97470.38;;;14.58;100.00
498;BME280;39559;48.630;9.162;2023-07-13T02:09:05;97473.09;;;14.71;100.00
498;BME280;39559;48.630;9.162;2023-07-13T02:11:32;97467.81;;;14.43;100.00
498;BME280;39559;48.630;9.162;2023-07-13T02:14:02;97467.53;;;14.17;100.00
498;BME280;39559;48.630;9.162;2023-07-13T02:16:29;97466.69;;;14.16;100.00
498;BME280;39559;48.630;9.162;2023-07-13T02:18:55;97467.78;;;14.28;100.00
498;BME280;39559;48.630;9.162;2023-07-13T02:23:19;97468.53;;;14.30;100.00
498;BME280;39559;48.630;9.162;2023-07-13T02:25:45;97468.84;;;14.24;100.00
498;BME280;39559;48.630;9.162;2023-07-13T02:28:10;97477.06;;;14.02;100.00
498;BME280;39559;48.630;9.162;2023-07-13T02:30:37;97472.28;;;13.94;100.00
498;BME280;39559;48.630;9.162;2023-07-13T02:33:04;97482.75;;;13.94;100.00
498;BME280;39559;48.630;9.162;2023-07-13T02:35:30;97485.28;;;13.80;100.00
498;BME280;39559;48.630;9.162;2023-07-13T02:37:56;97485.53;;;13.75;100.00
498;BME280;39559;48.630;9.162;2023-07-13T02:40:22;97489.31;;;13.86;100.00
498;BME280;39559;48.630;9.162;2023-07-13T02:42:48;97495.19;;;13.73;100.00
498;BME280;39559;48.630;9.162;2023-07-13T02:47:14;97482.34;;;13.86;100.00
498;BME280;39559;48.630;9.162;2023-07-13T02:49:40;97488.03;;;13.77;100.00
498;BME280;39559;48.630;9.162;2023-07-13T02:52:06;97482.44;;;13.69;100.00
498;BME280;39559;48.630;9.162;2023-07-13T02:54:31;97486.38;;;13.44;100.00
498;BME280;39559;48.630;9.162;2023-07-13T02:56:57;97487.31;;;13.43;100.00
498;BME280;39559;48.630;9.162;2023-07-13T02:59:23;97477.38;;;13.66;100.00
498;BME280;39559;48.630;9.162;2023-07-13T03:01:48;97485.59;;;13.42;100.00
498;BME280;39559;48.630;9.162;2023-07-13T03:04:14;97480.13;;;13.31;100.00
498;BME280;39559;48.630;9.162;2023-07-13T03:06:39;97485.22;;;13.16;100.00
498;BME280;39559;48.630;9.162;2023-07-13T03:11:13;97486.19;;;13.47;100.00
498;BME280;39559;48.630;9.162;2023-07-13T03:13:40;97484.94;;;13.38;100.00
498;BME280;39559;48.630;9.162;2023-07-13T03:16:07;97489.31;;;13.38;100.00
498;BME280;39559;48.630;9.162;2023-07-13T03:18:32;97496.66;;;13.30;100.00
498;BME280;39559;48.630;9.162;2023-07-13T03:20:58;97498.00;;;13.21;100.00
498;BME280;39559;48.630;9.162;2023-07-13T03:23:24;97501.13;;;13.12;100.00
498;BME280;39559;48.630;9.162;2023-07-13T03:25:50;97495.03;;;13.11;100.00
498;BME280;39559;48.630;9.162;2023-07-13T03:28:26;97502.13;;;13.25;100.00
498;BME280;39559;48.630;9.162;2023-07-13T03:31:02;97501.00;;;13.31;100.00
498;BME280;39559;48.630;9.162;2023-07-13T03:35:06;97507.97;;;13.30;100.00
498;BME280;39559;48.630;9.162;2023-07-13T03:37:31;97504.13;;;13.37;100.00
498;BME280;39559;48.630;9.162;2023-07-13T03:39:57;97509.97;;;13.25;100.00
498;BME280;39559;48.630;9.162;2023-07-13T03:42:22;97514.09;;;13.29;100.00
498;BME280;39559;48.630;9.162;2023-07-13T03:44:48;97515.78;;;13.30;100.00
498;BME280;39559;48.630;9.162;2023-07-13T03:47:17;97507.59;;;13.54;100.00
498;BME280;39559;48.630;9.162;2023-07-13T03:49:43;97519.84;;;13.36;100.00
498;BME280;39559;48.630;9.162;2023-07-13T03:52:09;97520.66;;;13.54;100.00
498;BME280;39559;48.630;9.162;2023-07-13T03:54:34;97527.25;;;13.43;100.00
498;BME280;39559;48.630;9.162;2023-07-13T03:59:14;97529.28;;;13.38;100.00
498;BME280;39559;48.630;9.162;2023-07-13T04:01:40;97534.56;;;13.37;100.00
498;BME280;39559;48.630;9.162;2023-07-13T04:04:05;97527.94;;;13.47;100.00
498;BME280;39559;48.630;9.162;2023-07-13T04:06:32;97525.59;;;13.42;100.00
498;BME280;39559;48.630;9.162;2023-07-13T04:08:59;97534.00;;;13.48;100.00
498;BME280;39559;48.630;9.162;2023-07-13T04:11:27;97534.44;;;13.56;100.00
498;BME280;39559;48.630;9.162;2023-07-13T04:13:54;97547.63;;;13.53;100.00
498;BME280;39559;48.630;9.162;2023-07-13T04:16:20;97545.97;;;13.52;100.00
498;BME280;39559;48.630;9.162;2023-07-13T04:18:47;97534.44;;;13.56;100.00
498;BME280;39559;48.630;9.162;2023-07-13T04:22:57;97550.00;;;13.73;100.00
498;BME280;39559;48.630;9.162;2023-07-13T04:25:23;97544.53;;;13.62;100.00
498;BME280;39559;48.630;9.162;2023-07-13T04:27:49;97536.56;;;13.65;100.00
498;BME280;39559;48.630;9.162;2023-07-13T04:30:15;97541.50;;;13.70;100.00
498;BME280;39559;48.630;9.162;2023-07-13T04:32:40;97546.56;;;13.73;100.00
498;BME280;39559;48.630;9.162;2023-07-13T04:35:06;97547.16;;;13.78;100.00
498;BME280;39559;48.630;9.162;2023-07-13T04:37:32;97550.38;;;13.83;100.00
498;BME280;39559;48.630;9.162;2023-07-13T04:39:58;97546.81;;;13.84;100.00
498;BME280;39559;48.630;9.162;2023-07-13T04:42:23;97547.31;;;14.23;100.00
498;BME280;39559;48.630;9.162;2023-07-13T04:46:54;97550.44;;;14.13;100.00
498;BME280;39559;48.630;9.162;2023-07-13T04:49:20;97551.28;;;14.14;100.00
498;BME280;39559;48.630;9.162;2023-07-13T04:51:45;97548.91;;;14.09;100.00
498;BME280;39559;48.630;9.162;2023-07-13T04:54:11;97554.50;;;14.03;100.00
498;BME280;39559;48.630;9.162;2023-07-13T04:56:37;97558.69;;;14.06;100.00
498;BME280;39559;48.630;9.162;2023-07-13T04:59:02;97549.66;;;14.11;100.00
498;BME280;39559;48.630;9.162;2023-07-13T05:01:28;97553.72;;;14.17;100.00
498;BME280;39559;48.630;9.162;2023-07-13T05:03:53;97550.25;;;14.16;100.00
498;BME280;39559;48.630;9.162;2023-07-13T05:06:21;97550.00;;;14.21;100.00
498;BME280;39559;48.630;9.162;2023-07-13T05:10:51;97549.00;;;14.24;100.00
498;BME280;39559;48.630;9.162;2023-07-13T05:13:22;97544.19;;;14.32;100.00
498;BME280;39559;48.630;9.162;2023-07-13T05:16:02;97563.81;;;14.39;100.00
498;BME280;39559;48.630;9.162;2023-07-13T05:18:29;97562.34;;;14.49;100.00
498;BME280;39559;48.630;9.162;2023-07-13T05:21:03;97562.59;;;14.61;100.00
498;BME280;39559;48.630;9.162;2023-07-13T05:23:30;97563.84;;;14.69;100.00
498;BME280;39559;48.630;9.162;2023-07-13T05:25:56;97566.00;;;14.77;100.00
498;BME280;39559;48.630;9.162;2023-07-13T05:28:22;97573.41;;;14.85;100.00
498;BME280;39559;48.630;9.162;2023-07-13T05:30:49;97568.31;;;14.97;100.00
498;BME280;39559;48.630;9.162;2023-07-13T05:34:46;97566.28;;;15.03;100.00
498;BME280;39559;48.630;9.162;2023-07-13T05:37:12;97571.59;;;15.01;100.00
498;BME280;39559;48.630;9.162;2023-07-13T05:39:37;97567.28;;;15.00;100.00
498;BME280;39559;48.630;9.162;2023-07-13T05:42:03;97572.50;;;15.00;100.00
498;BME280;39559;48.630;9.162;2023-07-13T05:44:29;97562.41;;;14.94;100.00
498;BME280;39559;48.630;9.162;2023-07-13T05:46:54;97570.84;;;14.99;100.00
498;BME280;39559;48.630;9.162;2023-07-13T05:49:22;97570.75;;;15.15;100.00
498;BME280;39559;48.630;9.162;2023-07-13T05:51:48;97574.88;;;15.19;100.00
498;BME280;39559;48.630;9.162;2023-07-13T05:54:13;97590.13;;;15.27;100.00
498;BME280;39559;48.630;9.162;2023-07-13T05:58:42;97588.06;;;15.32;100.00
498;BME280;39559;48.630;9.162;2023-07-13T06:01:13;97589.47;;;15.38;100.00
498;BME280;39559;48.630;9.162;2023-07-13T06:03:39;97589.09;;;15.44;100.00
498;BME280;39559;48.630;9.162;2023-07-13T06:06:06;97593.19;;;15.48;100.00
498;BME280;39559;48.630;9.162;2023-07-13T06:08:32;97599.94;;;15.52;100.00
498;BME280;39559;48.630;9.162;2023-07-13T06:11:19;97596.19;;;15.56;100.00
498;BME280;39559;48.630;9.162;2023-07-13T06:13:45;97597.78;;;15.59;100.00
498;BME280;39559;48.630;9.162;2023-07-13T06:16:12;97597.78;;;15.59;100.00
498;BME280;39559;48.630;9.162;2023-07-13T06:18:39;97611.63;;;15.75;100.00
498;BME280;39559;48.630;9.162;2023-07-13T06:22:39;97608.34;;;15.86;100.00
498;BME280;39559;48.630;9.162;2023-07-13T06:25:05;97612.84;;;15.98;100.00
498;BME280;39559;48.630;9.162;2023-07-13T06:27:30;97613.88;;;16.10;100.00
498;BME280;39559;48.630;9.162;2023-07-13T06:29:56;97614.25;;;16.31;100.00
498;BME280;39559;48.630;9.162;2023-07-13T06:32:21;97614.22;;;16.45;100.00
498;BME280;39559;48.630;9.162;2023-07-13T06:34:47;97607.59;;;16.67;100.00
498;BME280;39559;48.630;9.162;2023-07-13T06:37:12;97611.19;;;16.79;100.00
498;BME280;39559;48.630;9.162;2023-07-13T06:39:38;97609.19;;;16.82;100.00
498;BME280;39559;48.630;9.162;2023-07-13T06:42:04;97609.47;;;16.92;100.00
498;BME280;39559;48.630;9.162;2023-07-13T06:46:35;97614.53;;;17.08;100.00
498;BME280;39559;48.630;9.162;2023-07-13T06:49:01;97607.81;;;17.17;100.00
498;BME280;39559;48.630;9.162;2023-07-13T06:51:26;97619.06;;;17.32;100.00
498;BME280;39559;48.630;9.162;2023-07-13T06:53:52;97612.78;;;17.34;99.25
498;BME280;39559;48.630;9.162;2023-07-13T06:56:18;97611.09;;;17.46;100.00
498;BME280;39559;48.630;9.162;2023-07-13T06:58:43;97607.97;;;17.54;90.67
498;BME280;39559;48.630;9.162;2023-07-13T07:01:09;97614.97;;;17.66;89.56
498;BME280;39559;48.630;9.162;2023-07-13T07:04:06;97619.38;;;17.78;88.35
498;BME280;39559;48.630;9.162;2023-07-13T07:06:33;97622.34;;;17.87;81.45
498;BME280;39559;48.630;9.162;2023-07-13T07:10:32;97633.00;;;18.09;85.10
498;BME280;39559;48.630;9.162;2023-07-13T07:13:02;97632.38;;;18.06;79.66
498;BME280;39559;48.630;9.162;2023-07-13T07:15:28;97615.88;;;18.03;78.70
498;BME280;39559;48.630;9.162;2023-07-13T07:17:54;97617.25;;;18.09;80.14
498;BME280;39559;48.630;9.162;2023-07-13T07:20:19;97623.50;;;18.32;82.30
498;BME280;39559;48.630;9.162;2023-07-13T07:22:46;97623.38;;;18.34;78.78
498;BME280;39559;48.630;9.162;2023-07-13T07:25:12;97631.69;;;18.28;72.18
498;BME280;39559;48.630;9.162;2023-07-13T07:27:38;97634.34;;;18.52;73.98
498;BME280;39559;48.630;9.162;2023-07-13T07:30:04;97634.78;;;18.70;73.43
498;BME280;39559;48.630;9.162;2023-07-13T07:34:28;97617.44;;;18.67;68.65
498;BME280;39559;48.630;9.162;2023-07-13T07:36:54;97628.75;;;18.80;68.29
498;BME280;39559;48.630;9.162;2023-07-13T07:39:19;97619.19;;;18.79;68.90
498;BME280;39559;48.630;9.162;2023-07-13T07:41:45;97624.41;;;18.92;67.83
498;BME280;39559;48.630;9.162;2023-07-13T07:44:11;97626.03;;;19.17;70.58
498;BME280;39559;48.630;9.162;2023-07-13T07:46:36;97628.41;;;19.09;66.96
498;BME280;39559;48.630;9.162;2023-07-13T07:49:02;97623.47;;;19.51;65.19
498;BME280;39559;48.630;9.162;2023-07-13T07:51:28;97628.38;;;19.67;65.81
498;BME280;39559;48.630;9.162;2023-07-13T07:53:53;97626.19;;;19.38;64.26
498;BME280;39559;48.630;9.162;2023-07-13T07:58:24;97624.38;;;19.39;64.15
498;BME280;39559;48.630;9.162;2023-07-13T08:00:50;97627.78;;;19.41;62.07
498;BME280;39559;48.630;9.162;2023-07-13T08:03:32;97627.06;;;19.50;60.24
498;BME280;39559;48.630;9.162;2023-07-13T08:05:58;97633.28;;;19.49;62.57
498;BME280;39559;48.630;9.162;2023-07-13T08:08:24;97633.47;;;19.93;62.40
498;BME280;39559;48.630;9.162;2023-07-13T08:10:50;97629.22;;;20.36;61.63
498;BME280;39559;48.630;9.162;2023-07-13T08:13:16;97625.25;;;20.41;58.91
498;BME280;39559;48.630;9.162;2023-07-13T08:15:41;97630.50;;;20.52;54.78
498;BME280;39559;48.630;9.162;2023-07-13T08:18:07;97621.94;;;20.71;58.79
498;BME280;39559;48.630;9.162;2023-07-13T08:22:20;97626.94;;;20.31;57.57
498;BME280;39559;48.630;9.162;2023-07-13T08:24:46;97622.47;;;20.54;58.34
498;BME280;39559;48.630;9.162;2023-07-13T08:27:13;97619.31;;;20.71;57.30
498;BME280;39559;48.630;9.162;2023-07-13T08:29:39;97624.97;;;20.67;53.80
498;BME280;39559;48.630;9.162;2023-07-13T08:32:06;97624.81;;;20.57;55.13
498;BME280;39559;48.630;9.162;2023-07-13T08:34:35;97622.69;;;20.62;54.80
498;BME280;39559;48.630;9.162;2023-07-13T08:37:02;97622.56;;;20.64;56.89
498;BME280;39559;48.630;9.162;2023-07-13T08:39:30;97619.97;;;20.85;55.88
498;BME280;39559;48.630;9.162;2023-07-13T08:42:00;97619.94;;;20.96;56.18
498;BME280;39559;48.630;9.162;2023-07-13T08:46:33;97620.97;;;21.05;53.29
498;BME280;39559;48.630;9.162;2023-07-13T08:49:11;97625.00;;;21.30;53.75
498;BME280;39559;48.630;9.162;2023-07-13T08:51:49;97624.22;;;20.97;50.92
498;BME280;39559;48.630;9.162;2023-07-13T08:54:23;97619.97;;;20.85;52.96
498;BME280;39559;48.630;9.162;2023-07-13T08:56:53;97612.38;;;20.92;51.68
498;BME280;39559;48.630;9.162;2023-07-13T08:59:24;97616.56;;;21.15;52.51
498;BME280;39559;48.630;9.162;2023-07-13T09:10:46;97627.72;;;21.92;48.79
498;BME280;39559;48.630;9.162;2023-07-13T09:15:44;97625.97;;;22.42;48.83
498;BME280;39559;48.630;9.162;2023-07-13T09:18:28;97622.94;;;22.76;48.57
498;BME280;39559;48.630;9.162;2023-07-13T09:23:27;97621.25;;;23.44;47.84
498;BME280;39559;48.630;9.162;2023-07-13T09:26:02;97625.75;;;23.14;47.27
498;BME280;39559;48.630;9.162;2023-07-13T09:28:39;97627.28;;;23.36;46.11
498;BME280;39559;48.630;9.162;2023-07-13T09:31:23;97625.63;;;23.06;43.79
498;BME280;39559;48.630;9.162;2023-07-13T09:34:10;97612.72;;;23.50;47.67
498;BME280;39559;48.630;9.162;2023-07-13T09:36:40;97619.28;;;23.46;44.04
498;BME280;39559;48.630;9.162;2023-07-13T09:41:57;97618.41;;;22.28;45.65
498;BME280;39559;48.630;9.162;2023-07-13T09:44:33;97617.72;;;22.26;47.59
498;BME280;39559;48.630;9.162;2023-07-13T09:47:01;97610.34;;;22.30;46.01
498;BME280;39559;48.630;9.162;2023-07-13T09:49:33;97616.53;;;22.79;45.38
498;BME280;39559;48.630;9.162;2023-07-13T09:52:03;97618.34;;;23.27;43.25
498;BME280;39559;48.630;9.162;2023-07-13T09:54:29;97625.91;;;23.12;45.74
498;BME280;39559;48.630;9.162;2023-07-13T10:00:37;97624.53;;;23.65;43.97
498;BME280;39559;48.630;9.162;2023-07-13T10:03:16;97608.50;;;23.67;42.72
498;BME280;39559;48.630;9.162;2023-07-13T10:05:49;97615.59;;;23.76;43.06
498;BME280;39559;48.630;9.162;2023-07-13T10:08:25;97610.97;;;23.68;45.19
498;BME280;39559;48.630;9.162;2023-07-13T10:11:13;97612.06;;;23.75;42.24
498;BME280;39559;48.630;9.162;2023-07-13T10:16:21;97615.69;;;23.17;45.73
498;BME280;39559;48.630;9.162;2023-07-13T10:18:57;97628.69;;;23.11;45.20
498;BME280;39559;48.630;9.162;2023-07-13T10:22:10;97620.56;;;23.03;43.20
498;BME280;39559;48.630;9.162;2023-07-13T10:24:39;97619.19;;;22.89;44.53
498;BME280;39559;48.630;9.162;2023-07-13T10:27:17;97620.81;;;22.41;44.46
498;BME280;39559;48.630;9.162;2023-07-13T10:29:50;97614.84;;;22.08;47.01
498;BME280;39559;48.630;9.162;2023-07-13T10:32:19;97620.25;;;21.97;48.88
498;BME280;39559;48.630;9.162;2023-07-13T10:34:47;97612.97;;;21.89;51.40
498;BME280;39559;48.630;9.162;2023-07-13T10:37:19;97619.03;;;22.11;49.17
498;BME280;39559;48.630;9.162;2023-07-13T10:39:47;97619.16;;;22.50;49.85
498;BME280;39559;48.630;9.162;2023-07-13T10:42:32;97619.50;;;23.05;47.46
498;BME280;39559;48.630;9.162;2023-07-13T10:45:56;97613.34;;;23.14;46.73
498;BME280;39559;48.630;9.162;2023-07-13T10:48:23;97620.84;;;22.60;48.71
498;BME280;39559;48.630;9.162;2023-07-13T10:50:55;97623.22;;;22.64;49.82
498;BME280;39559;48.630;9.162;2023-07-13T10:53:31;97625.16;;;22.81;47.83
498;BME280;39559;48.630;9.162;2023-07-13T10:58:45;97603.34;;;23.65;44.77
498;BME280;39559;48.630;9.162;2023-07-13T11:01:14;97599.38;;;23.32;46.56
498;BME280;39559;48.630;9.162;2023-07-13T11:09:53;97603.00;;;23.78;43.54
498;BME280;39559;48.630;9.162;2023-07-13T11:19:53;97576.94;;;24.01;46.25
498;BME280;39559;48.630;9.162;2023-07-13T11:22:44;97574.22;;;23.93;47.25
498;BME280;39559;48.630;9.162;2023-07-13T11:27:50;97580.56;;;24.28;46.87
498;BME280;39559;48.630;9.162;2023-07-13T11:33:52;97581.84;;;24.69;42.77
498;BME280;39559;48.630;9.162;2023-07-13T11:36:21;97582.69;;;24.70;40.22
498;BME280;39559;48.630;9.162;2023-07-13T11:41:37;97568.47;;;24.79;43.36
498;BME280;39559;48.630;9.162;2023-07-13T11:44:13;97569.72;;;25.29;39.18
498;BME280;39559;48.630;9.162;2023-07-13T11:46:45;97576.06;;;25.62;42.10
498;BME280;39559;48.630;9.162;2023-07-13T11:49:15;97576.47;;;25.23;39.49
498;BME280;39559;48.630;9.162;2023-07-13T11:51:42;97565.78;;;25.15;39.77
498;BME280;39559;48.630;9.162;2023-07-13T11:54:42;97565.75;;;25.33;38.31
498;BME280;39559;48.630;9.162;2023-07-13T11:57:49;97563.94;;;25.34;41.74
498;BME280;39559;48.630;9.162;2023-07-13T12:00:22;97572.06;;;25.58;38.78
498;BME280;39559;48.630;9.162;2023-07-13T12:02:51;97575.31;;;25.78;39.22
498;BME280;39559;48.630;9.162;2023-07-13T12:05:18;97578.88;;;25.61;39.16
498;BME280;39559;48.630;9.162;2023-07-13T12:07:46;97583.72;;;24.95;36.84
498;BME280;39559;48.630;9.162;2023-07-13T12:10:21;97571.63;;;25.19;41.06
498;BME280;39559;48.630;9.162;2023-07-13T12:12:52;97565.31;;;25.20;39.24
498;BME280;39559;48.630;9.162;2023-07-13T12:15:18;97575.72;;;25.13;37.78
498;BME280;39559;48.630;9.162;2023-07-13T12:17:43;97566.31;;;24.57;38.59
498;BME280;39559;48.630;9.162;2023-07-13T12:21:41;97581.53;;;23.34;43.00
498;BME280;39559;48.630;9.162;2023-07-13T12:24:15;97576.69;;;23.57;44.62
498;BME280;39559;48.630;9.162;2023-07-13T12:26:41;97575.63;;;24.15;43.00
498;BME280;39559;48.630;9.162;2023-07-13T12:29:07;97563.53;;;24.30;42.41
498;BME280;39559;48.630;9.162;2023-07-13T12:31:44;97572.63;;;24.00;40.22
498;BME280;39559;48.630;9.162;2023-07-13T12:34:14;97568.50;;;23.88;40.84
498;BME280;39559;48.630;9.162;2023-07-13T12:36:52;97573.47;;;23.63;42.14
498;BME280;39559;48.630;9.162;2023-07-13T12:39:46;97563.69;;;24.29;43.49
498;BME280;39559;48.630;9.162;2023-07-13T12:45:30;97557.25;;;25.29;41.84
498;BME280;39559;48.630;9.162;2023-07-13T12:47:58;97569.25;;;24.53;38.67
498;BME280;39559;48.630;9.162;2023-07-13T12:50:30;97560.31;;;24.55;39.68
498;BME280;39559;48.630;9.162;2023-07-13T12:53:05;97561.28;;;24.89;40.60
498;BME280;39559;48.630;9.162;2023-07-13T12:55:41;97557.69;;;24.99;41.02
498;BME280;39559;48.630;9.162;2023-07-13T12:58:16;97564.53;;;24.47;40.52
498;BME280;39559;48.630;9.162;2023-07-13T13:00:49;97570.25;;;24.25;42.42
498;BME280;39559;48.630;9.162;2023-07-13T13:03:33;97580.06;;;24.42;40.16
498;BME280;39559;48.630;9.162;2023-07-13T13:06:05;97565.53;;;24.82;40.79
498;BME280;39559;48.630;9.162;2023-07-13T13:09:25;97562.75;;;25.62;41.17
498;BME280;39559;48.630;9.162;2023-07-13T13:11:50;97560.69;;;25.48;38.89
498;BME280;39559;48.630;9.162;2023-07-13T13:14:17;97564.88;;;25.85;38.33
498;BME280;39559;48.630;9.162;2023-07-13T13:16:47;97563.66;;;25.79;38.34
498;BME280;39559;48.630;9.162;2023-07-13T13:19:23;97568.53;;;26.27;37.45
498;BME280;39559;48.630;9.162;2023-07-13T13:21:48;97554.59;;;25.29;37.05
498;BME280;39559;48.630;9.162;2023-07-13T13:24:20;97559.91;;;25.29;37.99
498;BME280;39559;48.630;9.162;2023-07-13T13:26:47;97560.22;;;25.08;40.40
498;BME280;39559;48.630;9.162;2023-07-13T13:29:15;97562.00;;;25.18;40.04
498;BME280;39559;48.630;9.162;2023-07-13T13:33:25;97563.66;;;25.79;39.01
498;BME280;39559;48.630;9.162;2023-07-13T13:35:51;97560.66;;;25.40;39.35
498;BME280;39559;48.630;9.162;2023-07-13T13:38:20;97554.31;;;25.33;37.70
498;BME280;39559;48.630;9.162;2023-07-13T13:40:46;97556.34;;;24.95;37.98
498;BME280;39559;48.630;9.162;2023-07-13T13:43:23;97558.09;;;25.12;38.66
498;BME280;39559;48.630;9.162;2023-07-13T13:45:53;97563.03;;;25.51;38.07
498;BME280;39559;48.630;9.162;2023-07-13T13:48:30;97548.84;;;26.11;34.12
498;BME280;39559;48.630;9.162;2023-07-13T13:50:57;97546.06;;;25.78;34.13
498;BME280;39559;48.630;9.162;2023-07-13T13:53:23;97549.84;;;26.10;37.46
498;BME280;39559;48.630;9.162;2023-07-13T13:57:13;97556.84;;;25.77;37.00
498;BME280;39559;48.630;9.162;2023-07-13T13:59:38;97556.56;;;25.54;37.16
498;BME280;39559;48.630;9.162;2023-07-13T14:02:24;97551.63;;;24.88;36.42
498;BME280;39559;48.630;9.162;2023-07-13T14:04:54;97549.59;;;25.53;39.74
498;BME280;39559;48.630;9.162;2023-07-13T14:07:20;97535.78;;;25.83;36.34
498;BME280;39559;48.630;9.162;2023-07-13T14:09:46;97532.56;;;26.22;33.19
498;BME280;39559;48.630;9.162;2023-07-13T14:12:11;97536.59;;;26.43;32.19
498;BME280;39559;48.630;9.162;2023-07-13T14:14:40;97544.75;;;26.25;35.82
498;BME280;39559;48.630;9.162;2023-07-13T14:17:20;97535.63;;;25.51;37.19
498;BME280;39559;48.630;9.162;2023-07-13T14:21:15;97539.41;;;24.42;38.57
498;BME280;39559;48.630;9.162;2023-07-13T14:23:43;97536.13;;;25.02;39.75
498;BME280;39559;48.630;9.162;2023-07-13T14:26:18;97544.94;;;25.55;39.42
498;BME280;39559;48.630;9.162;2023-07-13T14:28:46;97541.19;;;26.00;38.77
498;BME280;39559;48.630;9.162;2023-07-13T14:31:13;97543.31;;;25.62;36.29
498;BME280;39559;48.630;9.162;2023-07-13T14:33:40;97538.28;;;25.85;37.34
498;BME280;39559;48.630;9.162;2023-07-13T14:36:29;97541.19;;;25.39;38.39
498;BME280;39559;48.630;9.162;2023-07-13T14:38:57;97548.44;;;25.55;37.37
498;BME280;39559;48.630;9.162;2023-07-13T14:41:24;97537.34;;;25.34;40.94
498;BME280;39559;48.630;9.162;2023-07-13T14:45:00;97542.81;;;25.58;38.49
498;BME280;39559;48.630;9.162;2023-07-13T14:47:25;97544.59;;;25.92;36.51
498;BME280;39559;48.630;9.162;2023-07-13T14:49:51;97550.88;;;25.83;38.00
498;BME280;39559;48.630;9.162;2023-07-13T14:52:21;97554.03;;;26.21;37.94
498;BME280;39559;48.630;9.162;2023-07-13T14:54:48;97545.56;;;25.83;38.03
498;BME280;39559;48.630;9.162;2023-07-13T14:57:16;97543.34;;;25.70;37.81
498;BME280;39559;48.630;9.162;2023-07-13T14:59:43;97549.53;;;25.71;37.89
498;BME280;39559;48.630;9.162;2023-07-13T15:02:35;97556.66;;;26.04;37.22
498;BME280;39559;48.630;9.162;2023-07-13T15:05:19;97559.97;;;25.98;37.44
498;BME280;39559;48.630;9.162;2023-07-13T15:08:53;97563.34;;;25.48;39.47
498;BME280;39559;48.630;9.162;2023-07-13T15:11:19;97560.06;;;25.28;38.87